Time;durP1;ratioP1;P1;durP2;ratioP2;P2;SDS_P1;SDS_P2;PMS_P1;PMS_P2;Temp;Humidity;BMP_temperature;BMP_pressure;BME280_temperature;BME280_humidity;BME280_pressure;Samples;Min_cycle;Max_cycle;Signal;HPM_P1;HPM_P2
2023/03/08 00:00:50;;;;;;;5.50;1.30;;;1.10;99.90;;;;;;5019558;28;20026;-75
2023/03/08 00:03:16;;;;;;;6.68;1.92;;;1.10;99.90;;;;;;5019103;28;20025;-74
2023/03/08 00:05:42;;;;;;;6.18;1.30;;;1.10;99.90;;;;;;5018609;28;20477;-73
2023/03/08 00:08:08;;;;;;;5.28;1.13;;;1.10;99.90;;;;;;5018585;28;20029;-74
2023/03/08 00:10:33;;;;;;;8.35;1.40;;;1.10;99.90;;;;;;5021631;28;20030;-75
2023/03/08 00:12:59;;;;;;;5.15;1.25;;;1.00;99.90;;;;;;5017947;28;20025;-75
2023/03/08 00:15:25;;;;;;;5.22;1.38;;;1.00;99.90;;;;;;5018213;28;20032;-72
2023/03/08 00:17:50;;;;;;;5.40;1.60;;;1.00;99.90;;;;;;5018498;28;20696;-74
2023/03/08 00:20:16;;;;;;;4.22;1.02;;;1.10;99.90;;;;;;5019801;28;20045;-73
2023/03/08 00:22:42;;;;;;;3.38;1.20;;;1.00;99.90;;;;;;5018828;28;20034;-73
2023/03/08 00:25:09;;;;;;;3.85;1.30;;;1.00;99.90;;;;;;5019594;28;20022;-72
2023/03/08 00:27:36;;;;;;;6.03;1.60;;;1.00;99.90;;;;;;5018885;28;20021;-74
2023/03/08 00:30:04;;;;;;;4.32;1.58;;;0.90;99.90;;;;;;5020739;28;20113;-72
2023/03/08 00:32:31;;;;;;;5.50;1.38;;;0.90;99.90;;;;;;5001301;28;20308;-72
2023/03/08 00:34:56;;;;;;;4.18;1.60;;;0.90;99.90;;;;;;5018591;28;20010;-72
2023/03/08 00:37:22;;;;;;;2.63;1.33;;;0.90;99.90;;;;;;5005429;28;20083;-73
2023/03/08 00:39:51;;;;;;;4.25;1.40;;;0.90;99.90;;;;;;5020771;28;20172;-72
2023/03/08 00:42:16;;;;;;;2.45;1.20;;;0.90;99.90;;;;;;5020107;28;20485;-73
2023/03/08 00:44:42;;;;;;;9.95;1.70;;;0.90;99.90;;;;;;5018913;28;20026;-75
2023/03/08 00:47:08;;;;;;;7.03;1.40;;;0.90;99.90;;;;;;5021810;28;20026;-74
2023/03/08 00:49:33;;;;;;;3.38;1.15;;;0.90;99.90;;;;;;5018241;28;20230;-73
2023/03/08 00:51:59;;;;;;;3.75;1.50;;;0.70;99.90;;;;;;5018113;28;20057;-72
2023/03/08 00:54:25;;;;;;;4.72;1.77;;;0.80;99.90;;;;;;5018989;28;20080;-72
2023/03/08 00:56:50;;;;;;;3.17;1.30;;;0.80;99.90;;;;;;5018548;28;20104;-72
2023/03/08 00:59:16;;;;;;;8.07;2.05;;;0.80;99.90;;;;;;5018250;28;20030;-73
2023/03/08 01:01:42;;;;;;;4.30;1.42;;;0.70;99.90;;;;;;5016610;28;20025;-73
2023/03/08 01:04:07;;;;;;;4.57;1.50;;;0.70;99.90;;;;;;5019174;28;20034;-73
2023/03/08 01:06:33;;;;;;;7.03;2.45;;;0.80;99.90;;;;;;5019033;28;20505;-73
2023/03/08 01:08:59;;;;;;;4.43;1.73;;;0.80;99.90;;;;;;5029711;28;20030;-73
2023/03/08 01:11:26;;;;;;;7.72;1.58;;;0.80;99.90;;;;;;5029690;28;20021;-74
2023/03/08 01:13:52;;;;;;;4.00;1.63;;;0.70;99.90;;;;;;5027291;28;20338;-72
2023/03/08 01:16:25;;;;;;;4.63;1.50;;;0.70;99.90;;;;;;5029768;28;20096;-71
2023/03/08 01:18:51;;;;;;;4.43;1.67;;;0.70;99.90;;;;;;5022897;28;20036;-73
2023/03/08 01:21:17;;;;;;;3.03;1.70;;;0.70;99.90;;;;;;5022722;28;20174;-74
2023/03/08 01:23:43;;;;;;;6.25;1.58;;;0.70;99.90;;;;;;5017879;28;20026;-74
2023/03/08 01:26:14;;;;;;;7.75;2.15;;;0.70;99.90;;;;;;5021073;28;20382;-73
2023/03/08 01:28:41;;;;;;;6.80;1.73;;;0.60;99.90;;;;;;5019331;28;20029;-73
2023/03/08 01:31:20;;;;;;;3.60;1.83;;;0.60;99.90;;;;;;5020727;28;20116;-72
2023/03/08 01:33:46;;;;;;;5.88;2.03;;;0.60;99.90;;;;;;5017345;28;20052;-72
2023/03/08 01:36:15;;;;;;;5.55;1.65;;;0.60;99.90;;;;;;5019046;28;20041;-72
2023/03/08 01:38:41;;;;;;;4.95;1.95;;;0.60;99.90;;;;;;5018383;28;20033;-72
2023/03/08 01:41:13;;;;;;;5.78;1.90;;;0.50;99.90;;;;;;5002703;28;20045;-72
2023/03/08 01:43:39;;;;;;;6.78;2.22;;;0.60;99.90;;;;;;5019844;28;20385;-72
2023/03/08 01:46:26;;;;;;;5.22;1.70;;;0.60;99.90;;;;;;5019913;28;20017;-72
2023/03/08 01:49:08;;;;;;;4.35;2.13;;;0.60;99.90;;;;;;5019856;28;20460;-73
2023/03/08 01:51:49;;;;;;;4.88;2.10;;;0.60;99.90;;;;;;5017782;28;20405;-73
2023/03/08 01:54:22;;;;;;;8.40;2.65;;;0.60;99.90;;;;;;5018821;28;20025;-74
2023/03/08 01:56:50;;;;;;;6.10;2.15;;;0.60;99.90;;;;;;5019598;28;20100;-73
2023/03/08 01:59:19;;;;;;;5.50;2.13;;;0.60;99.90;;;;;;5017934;28;20029;-73
2023/03/08 02:01:45;;;;;;;9.40;2.85;;;0.60;99.90;;;;;;5017497;28;20033;-72
2023/03/08 02:04:11;;;;;;;6.65;2.40;;;0.60;99.90;;;;;;5017491;28;20038;-72
2023/03/08 02:06:36;;;;;;;7.75;2.50;;;0.60;99.90;;;;;;5016133;28;20393;-72
2023/03/08 02:09:04;;;;;;;9.68;3.15;;;0.60;99.90;;;;;;5018983;28;20098;-72
2023/03/08 02:11:33;;;;;;;5.50;2.10;;;0.60;99.90;;;;;;5018594;28;20022;-72
2023/03/08 02:13:58;;;;;;;3.90;2.20;;;0.50;99.90;;;;;;5017682;28;20040;-72
2023/03/08 02:16:24;;;;;;;6.05;2.60;;;0.50;99.90;;;;;;5016517;28;20021;-72
2023/03/08 02:18:56;;;;;;;5.70;2.53;;;0.50;99.90;;;;;;5015721;28;20258;-73
2023/03/08 02:21:23;;;;;;;4.22;2.55;;;0.50;99.90;;;;;;5016480;28;20033;-72
2023/03/08 02:23:49;;;;;;;4.97;2.22;;;0.40;99.90;;;;;;5016954;28;20044;-72
2023/03/08 02:26:15;;;;;;;8.30;2.63;;;0.40;99.90;;;;;;5017548;28;20104;-72
2023/03/08 02:28:42;;;;;;;7.30;2.45;;;0.40;99.90;;;;;;5018428;28;20026;-73
2023/03/08 02:31:08;;;;;;;7.20;2.50;;;0.40;99.90;;;;;;5017802;28;20409;-73
2023/03/08 02:33:34;;;;;;;4.72;2.50;;;0.40;99.90;;;;;;5021642;28;20057;-72
2023/03/08 02:36:01;;;;;;;4.75;2.50;;;0.40;99.90;;;;;;5019662;28;20069;-72
2023/03/08 02:38:27;;;;;;;4.95;2.58;;;0.50;99.90;;;;;;5020254;28;20026;-73
2023/03/08 02:40:52;;;;;;;5.28;2.67;;;0.50;99.90;;;;;;5003385;28;20436;-74
2023/03/08 02:43:19;;;;;;;5.22;2.80;;;0.60;99.90;;;;;;5018241;28;20029;-73
2023/03/08 02:45:45;;;;;;;7.25;2.83;;;0.60;99.90;;;;;;5021653;28;20022;-72
2023/03/08 02:48:11;;;;;;;5.13;2.60;;;0.60;99.90;;;;;;5020125;28;20025;-72
2023/03/08 02:50:37;;;;;;;10.55;3.10;;;0.70;99.90;;;;;;5023780;28;20036;-72
2023/03/08 02:53:03;;;;;;;6.38;2.92;;;0.70;99.90;;;;;;5022079;28;20022;-75
2023/03/08 02:55:29;;;;;;;6.13;3.22;;;0.70;99.90;;;;;;5019406;28;20018;-74
2023/03/08 02:57:55;;;;;;;4.88;3.28;;;0.70;99.90;;;;;;5017409;28;20548;-73
2023/03/08 03:00:21;;;;;;;5.53;3.03;;;0.70;99.90;;;;;;5018587;28;20065;-72
2023/03/08 03:02:47;;;;;;;12.52;3.33;;;0.70;99.90;;;;;;5022074;28;20029;-72
2023/03/08 03:05:13;;;;;;;8.20;4.35;;;0.70;99.90;;;;;;5017930;28;20394;-72
2023/03/08 03:07:41;;;;;;;5.97;3.30;;;0.70;99.90;;;;;;5020245;28;20033;-72
2023/03/08 03:10:08;;;;;;;8.80;3.53;;;0.70;99.90;;;;;;5020162;28;20025;-72
2023/03/08 03:12:34;;;;;;;6.00;3.75;;;0.70;99.90;;;;;;5018519;28;20037;-72
2023/03/08 03:15:01;;;;;;;6.30;3.40;;;0.70;99.90;;;;;;5019163;28;20017;-74
2023/03/08 03:17:27;;;;;;;6.50;3.47;;;0.70;99.90;;;;;;5019529;28;20271;-74
2023/03/08 03:19:53;;;;;;;4.68;3.30;;;0.70;99.90;;;;;;5019275;28;20121;-73
2023/03/08 03:22:18;;;;;;;7.95;3.70;;;0.70;99.90;;;;;;5000901;28;20541;-74
2023/03/08 03:24:44;;;;;;;6.15;3.78;;;0.70;99.90;;;;;;5018125;28;20069;-74
2023/03/08 03:27:10;;;;;;;8.50;4.03;;;0.70;99.90;;;;;;5017079;28;20056;-73
2023/03/08 03:29:38;;;;;;;5.80;3.78;;;0.60;99.90;;;;;;5020128;28;20034;-74
2023/03/08 03:32:04;;;;;;;6.10;3.60;;;0.70;99.90;;;;;;5022947;28;20030;-74
2023/03/08 03:34:30;;;;;;;7.00;3.50;;;0.70;99.90;;;;;;5018436;28;20250;-74
2023/03/08 03:36:56;;;;;;;6.13;3.50;;;0.70;99.90;;;;;;5017673;28;20025;-74
2023/03/08 03:39:22;;;;;;;6.45;3.38;;;0.70;99.90;;;;;;5021506;28;20021;-73
2023/03/08 03:41:47;;;;;;;5.85;3.60;;;0.80;99.90;;;;;;5015420;28;20061;-73
2023/03/08 03:44:13;;;;;;;8.40;3.80;;;0.80;99.90;;;;;;5018813;28;20054;-72
2023/03/08 03:46:39;;;;;;;7.65;3.72;;;0.70;99.90;;;;;;5018888;28;20040;-72
2023/03/08 03:49:04;;;;;;;6.03;3.60;;;0.70;99.90;;;;;;5018633;28;20056;-72
2023/03/08 03:51:30;;;;;;;5.15;3.25;;;0.70;99.90;;;;;;5021003;28;20025;-72
2023/03/08 03:53:57;;;;;;;7.60;3.42;;;0.70;99.90;;;;;;5001356;28;20044;-72
2023/03/08 03:56:25;;;;;;;9.90;3.40;;;0.70;99.90;;;;;;5002849;28;20034;-74
2023/03/08 03:58:52;;;;;;;5.55;3.72;;;0.70;99.90;;;;;;5018744;28;20524;-73
2023/03/08 04:01:29;;;;;;;8.50;3.50;;;0.80;99.90;;;;;;5019414;28;20037;-73
2023/03/08 04:03:55;;;;;;;4.93;3.08;;;0.80;99.90;;;;;;5020489;28;20536;-73
2023/03/08 04:06:30;;;;;;;12.07;3.40;;;0.80;99.90;;;;;;5018413;28;20379;-73
2023/03/08 04:09:02;;;;;;;5.95;2.90;;;0.70;99.90;;;;;;5018167;28;20374;-74
2023/03/08 04:11:32;;;;;;;5.07;3.10;;;0.70;99.90;;;;;;5020086;28;20033;-73
2023/03/08 04:13:57;;;;;;;6.07;2.87;;;0.80;99.90;;;;;;5019875;28;20026;-74
2023/03/08 04:16:25;;;;;;;8.40;3.47;;;0.80;99.90;;;;;;5021310;28;20511;-73
2023/03/08 04:18:54;;;;;;;5.28;3.10;;;0.80;99.90;;;;;;5018403;28;20029;-73
2023/03/08 04:21:20;;;;;;;5.13;3.17;;;0.90;99.90;;;;;;5019345;28;20460;-72
2023/03/08 04:23:45;;;;;;;5.25;2.97;;;0.90;99.90;;;;;;5018591;28;20025;-71
2023/03/08 04:26:12;;;;;;;4.70;3.05;;;0.90;99.90;;;;;;5017388;28;20160;-77
2023/03/08 04:28:40;;;;;;;5.20;3.55;;;0.90;99.90;;;;;;5018629;28;20053;-75
2023/03/08 04:31:12;;;;;;;7.50;3.25;;;0.90;99.90;;;;;;5022345;28;20083;-74
2023/03/08 04:33:38;;;;;;;6.30;3.53;;;0.90;99.90;;;;;;5025076;28;20026;-74
2023/03/08 04:36:04;;;;;;;7.97;3.20;;;1.00;99.90;;;;;;5021053;28;20025;-74
2023/03/08 04:38:32;;;;;;;5.22;2.90;;;1.00;99.90;;;;;;5020105;28;20030;-74
2023/03/08 04:41:01;;;;;;;4.07;2.47;;;1.00;99.90;;;;;;5023971;28;20461;-75
2023/03/08 04:43:27;;;;;;;5.68;3.30;;;1.00;99.90;;;;;;5020386;28;20029;-73
2023/03/08 04:45:53;;;;;;;5.30;3.03;;;0.90;99.90;;;;;;5020785;28;20025;-71
2023/03/08 04:48:19;;;;;;;4.55;2.88;;;1.00;99.90;;;;;;5019451;28;20026;-72
2023/03/08 04:50:50;;;;;;;4.90;2.88;;;1.00;99.90;;;;;;5023089;28;20025;-71
2023/03/08 04:53:16;;;;;;;4.63;2.83;;;1.00;99.90;;;;;;5030549;28;20036;-72
2023/03/08 04:55:42;;;;;;;7.63;3.70;;;1.00;99.90;;;;;;5024000;28;20108;-72
2023/03/08 04:58:07;;;;;;;7.60;3.10;;;1.00;99.90;;;;;;5019840;28;20018;-71
2023/03/08 05:00:33;;;;;;;4.22;2.60;;;1.10;99.90;;;;;;5019544;28;20036;-71
2023/03/08 05:02:59;;;;;;;18.45;5.20;;;1.00;99.90;;;;;;5020730;28;20510;-72
2023/03/08 05:05:24;;;;;;;4.63;2.70;;;1.00;99.90;;;;;;5018740;28;20029;-72
2023/03/08 05:07:50;;;;;;;3.95;2.50;;;1.00;99.90;;;;;;5019258;28;20030;-73
2023/03/08 05:10:16;;;;;;;3.92;2.58;;;1.00;99.90;;;;;;5020622;28;20110;-72
2023/03/08 05:12:41;;;;;;;7.28;2.75;;;1.00;99.90;;;;;;5021241;28;20017;-74
2023/03/08 05:15:07;;;;;;;5.07;2.90;;;1.00;99.90;;;;;;5019502;28;20027;-72
2023/03/08 05:17:33;;;;;;;6.25;3.33;;;1.00;99.90;;;;;;5021110;28;20029;-74
2023/03/08 05:19:59;;;;;;;5.90;2.85;;;1.00;99.90;;;;;;5001181;28;20044;-72
2023/03/08 05:22:24;;;;;;;6.32;2.88;;;1.00;99.90;;;;;;5001943;28;20144;-71
2023/03/08 05:24:51;;;;;;;4.13;2.80;;;1.00;99.90;;;;;;5018142;28;20061;-71
2023/03/08 05:27:17;;;;;;;5.53;3.55;;;1.00;99.90;;;;;;5019606;28;20088;-71
2023/03/08 05:29:42;;;;;;;5.53;3.00;;;1.00;99.90;;;;;;5018403;28;20053;-71
2023/03/08 05:32:12;;;;;;;3.45;2.38;;;1.10;99.90;;;;;;5002373;28;20506;-71
2023/03/08 05:34:37;;;;;;;4.28;2.83;;;1.10;99.90;;;;;;5019659;28;20516;-73
2023/03/08 05:37:03;;;;;;;6.75;3.30;;;1.10;99.90;;;;;;5020309;28;20304;-73
2023/03/08 05:39:29;;;;;;;6.15;3.67;;;1.10;99.90;;;;;;5018927;28;20525;-72
2023/03/08 05:41:55;;;;;;;5.85;3.75;;;1.10;99.90;;;;;;5018021;28;20384;-73
2023/03/08 05:44:21;;;;;;;7.53;4.60;;;1.10;99.90;;;;;;5018173;28;20029;-73
2023/03/08 05:46:50;;;;;;;10.70;6.85;;;1.00;99.90;;;;;;5017713;28;20036;-71
2023/03/08 05:49:15;;;;;;;12.50;6.75;;;1.00;99.90;;;;;;5017166;28;20389;-71
2023/03/08 05:51:41;;;;;;;14.88;7.75;;;1.00;99.90;;;;;;5018160;28;20084;-73
2023/03/08 05:54:07;;;;;;;12.57;7.05;;;1.00;99.90;;;;;;5017609;28;20569;-72
2023/03/08 05:56:33;;;;;;;15.10;7.30;;;1.00;99.90;;;;;;5018039;28;20022;-72
2023/03/08 05:58:58;;;;;;;13.77;7.32;;;1.00;99.90;;;;;;5018732;28;20029;-72
2023/03/08 06:01:26;;;;;;;14.48;7.45;;;1.00;99.90;;;;;;5017742;28;20021;-72
2023/03/08 06:03:54;;;;;;;11.27;6.13;;;0.90;99.90;;;;;;5015983;28;20030;-72
2023/03/08 06:06:22;;;;;;;12.25;7.35;;;0.90;99.90;;;;;;5017165;28;20494;-72
2023/03/08 06:08:48;;;;;;;13.98;7.03;;;0.90;99.90;;;;;;5016732;28;20069;-72
2023/03/08 06:11:14;;;;;;;15.05;7.03;;;1.00;99.90;;;;;;5018095;28;20064;-72
2023/03/08 06:13:40;;;;;;;15.65;7.40;;;1.00;99.90;;;;;;5020489;28;20029;-72
2023/03/08 06:16:06;;;;;;;13.43;7.65;;;1.00;99.90;;;;;;5017777;28;20021;-74
2023/03/08 06:18:34;;;;;;;18.10;7.70;;;1.00;99.90;;;;;;5016888;28;20025;-76
2023/03/08 06:21:03;;;;;;;12.82;6.70;;;1.00;99.90;;;;;;5017877;28;20111;-74
2023/03/08 06:23:30;;;;;;;14.60;8.05;;;1.00;99.90;;;;;;5019313;28;20141;-72
2023/03/08 06:25:57;;;;;;;18.20;7.90;;;1.00;99.90;;;;;;5019593;28;20037;-72
2023/03/08 06:28:23;;;;;;;21.00;9.43;;;1.00;99.90;;;;;;5000294;28;20509;-72
2023/03/08 06:30:49;;;;;;;19.50;9.35;;;1.10;99.90;;;;;;5017201;28;20444;-72
2023/03/08 06:33:20;;;;;;;19.55;8.82;;;1.10;99.90;;;;;;5017677;28;20022;-72
2023/03/08 06:36:00;;;;;;;18.40;8.68;;;1.00;99.90;;;;;;5016115;28;20021;-72
2023/03/08 06:38:27;;;;;;;18.50;8.57;;;1.10;99.90;;;;;;5017689;28;20436;-73
2023/03/08 06:40:53;;;;;;;17.13;8.77;;;1.30;99.90;;;;;;5018720;28;20042;-73
2023/03/08 06:43:19;;;;;;;20.42;9.55;;;1.20;99.90;;;;;;5017564;28;20109;-74
2023/03/08 06:45:45;;;;;;;16.80;8.07;;;1.10;99.90;;;;;;4999779;28;20061;-72
2023/03/08 06:48:11;;;;;;;18.73;8.55;;;1.10;99.90;;;;;;4999487;28;20075;-72
2023/03/08 06:50:37;;;;;;;20.45;8.63;;;1.10;99.90;;;;;;5018091;28;20033;-73
2023/03/08 06:53:03;;;;;;;17.35;8.38;;;1.10;99.90;;;;;;5017021;28;20033;-73
2023/03/08 06:55:28;;;;;;;21.38;8.73;;;1.10;99.90;;;;;;5018437;28;20025;-72
2023/03/08 06:57:54;;;;;;;20.13;8.32;;;1.10;99.90;;;;;;5015863;28;20026;-72
2023/03/08 07:00:21;;;;;;;22.58;9.07;;;1.10;99.90;;;;;;5017399;28;20030;-74
2023/03/08 07:02:47;;;;;;;21.88;9.88;;;1.20;99.90;;;;;;5015248;28;20061;-73
2023/03/08 07:05:14;;;;;;;22.23;9.68;;;1.20;99.90;;;;;;5001541;28;20026;-75
2023/03/08 07:07:41;;;;;;;21.83;8.98;;;1.20;99.90;;;;;;5018639;28;20413;-72
2023/03/08 07:10:09;;;;;;;19.10;8.88;;;1.20;99.90;;;;;;5020957;28;20044;-74
2023/03/08 07:12:38;;;;;;;20.33;9.98;;;1.20;99.90;;;;;;4999574;28;20041;-73
2023/03/08 07:15:07;;;;;;;22.23;10.10;;;1.20;99.90;;;;;;5018017;28;20565;-73
2023/03/08 07:17:34;;;;;;;20.10;10.60;;;1.20;99.90;;;;;;5019454;28;20111;-72
2023/03/08 07:20:00;;;;;;;19.50;9.73;;;1.20;99.90;;;;;;5019769;28;20108;-72
2023/03/08 07:22:28;;;;;;;21.50;9.50;;;1.20;99.90;;;;;;5022154;28;20030;-73
2023/03/08 07:24:54;;;;;;;23.67;9.27;;;1.20;99.90;;;;;;5018456;28;20100;-72
2023/03/08 07:27:20;;;;;;;20.23;9.60;;;1.20;99.90;;;;;;5019749;28;20116;-72
2023/03/08 07:29:45;;;;;;;20.05;9.77;;;1.20;99.90;;;;;;5018572;28;20056;-74
2023/03/08 07:32:11;;;;;;;20.05;9.63;;;1.20;99.90;;;;;;5024391;28;20029;-73
2023/03/08 07:34:37;;;;;;;22.40;10.52;;;1.30;99.90;;;;;;5019166;28;20025;-73
2023/03/08 07:37:03;;;;;;;23.05;10.73;;;1.40;99.90;;;;;;5024508;28;20035;-72
2023/03/08 07:39:29;;;;;;;26.65;11.48;;;1.40;99.90;;;;;;5023086;28;20128;-72
2023/03/08 07:41:55;;;;;;;24.75;11.00;;;1.40;99.90;;;;;;5022643;28;20026;-73
2023/03/08 07:44:20;;;;;;;22.92;10.98;;;1.50;99.90;;;;;;5020739;28;20117;-72
2023/03/08 07:46:46;;;;;;;25.30;11.77;;;1.50;99.90;;;;;;5020035;28;20053;-72
2023/03/08 07:49:12;;;;;;;24.60;11.98;;;1.50;99.90;;;;;;5020737;28;20116;-73
2023/03/08 07:51:38;;;;;;;23.65;12.02;;;1.50;99.90;;;;;;5022921;28;20030;-74
2023/03/08 07:54:03;;;;;;;26.00;11.90;;;1.50;99.90;;;;;;5023192;28;20028;-73
2023/03/08 07:56:29;;;;;;;26.70;12.13;;;1.60;99.90;;;;;;5022925;28;20030;-74
2023/03/08 07:58:56;;;;;;;27.88;12.25;;;1.50;99.90;;;;;;5022511;28;20025;-72
2023/03/08 08:01:22;;;;;;;28.50;12.35;;;1.60;99.90;;;;;;5022291;28;20038;-74
2023/03/08 08:03:49;;;;;;;23.02;11.98;;;1.60;99.90;;;;;;5020847;28;20141;-74
2023/03/08 08:06:15;;;;;;;27.58;12.13;;;1.60;99.90;;;;;;5020987;28;20029;-72
2023/03/08 08:08:41;;;;;;;30.42;13.00;;;1.60;99.90;;;;;;5021003;28;20457;-73
2023/03/08 08:11:14;;;;;;;29.02;12.90;;;1.70;99.90;;;;;;5019719;28;20117;-74
2023/03/08 08:13:40;;;;;;;28.27;11.38;;;1.70;99.90;;;;;;5021547;28;20049;-72
2023/03/08 08:16:06;;;;;;;26.63;12.63;;;1.70;99.90;;;;;;5020139;28;20021;-72
2023/03/08 08:18:33;;;;;;;23.10;11.20;;;1.70;99.90;;;;;;5020777;28;20028;-72
2023/03/08 08:21:03;;;;;;;25.52;10.95;;;1.80;99.90;;;;;;5030214;28;20038;-74
2023/03/08 08:23:29;;;;;;;26.53;11.07;;;1.70;99.90;;;;;;5035328;28;20029;-75
2023/03/08 08:25:55;;;;;;;23.08;10.82;;;1.80;99.90;;;;;;5029999;28;20033;-75
2023/03/08 08:28:23;;;;;;;24.33;10.68;;;1.90;99.90;;;;;;5019498;28;20049;-75
2023/03/08 08:31:00;;;;;;;24.67;10.40;;;1.90;99.90;;;;;;5018876;28;20448;-74
2023/03/08 08:33:27;;;;;;;22.02;11.15;;;1.90;99.90;;;;;;5018598;28;20041;-74
2023/03/08 08:35:53;;;;;;;22.17;10.98;;;2.00;99.90;;;;;;5003560;28;20120;-73
2023/03/08 08:38:19;;;;;;;21.23;9.07;;;2.00;99.90;;;;;;5018283;28;20096;-74
2023/03/08 08:40:45;;;;;;;18.38;9.18;;;2.00;99.90;;;;;;5019893;28;20029;-72
2023/03/08 08:43:11;;;;;;;18.67;9.60;;;2.00;99.90;;;;;;5019757;28;20056;-74
2023/03/08 08:45:43;;;;;;;20.45;8.85;;;2.00;99.90;;;;;;5017902;28;20022;-72
2023/03/08 08:48:08;;;;;;;23.30;10.93;;;2.00;99.90;;;;;;5018889;28;20028;-74
2023/03/08 08:50:36;;;;;;;22.48;9.73;;;2.00;99.90;;;;;;5001522;28;20025;-74
2023/03/08 08:53:01;;;;;;;20.50;9.55;;;2.00;99.90;;;;;;5019684;28;20030;-74
2023/03/08 08:55:27;;;;;;;22.67;10.15;;;1.90;99.90;;;;;;5019545;28;20091;-74
2023/03/08 08:57:53;;;;;;;18.58;9.43;;;1.90;99.90;;;;;;5022209;28;20021;-73
2023/03/08 09:00:19;;;;;;;18.90;9.35;;;2.00;99.90;;;;;;5017623;28;20037;-72
2023/03/08 09:02:47;;;;;;;18.85;9.38;;;1.90;99.90;;;;;;5019178;28;20470;-74
2023/03/08 09:05:13;;;;;;;21.38;8.60;;;2.00;99.90;;;;;;5017567;28;20053;-72
2023/03/08 09:07:38;;;;;;;18.08;9.85;;;2.00;99.90;;;;;;5017573;28;20072;-73
2023/03/08 09:10:05;;;;;;;18.27;9.27;;;1.90;99.90;;;;;;5018072;28;20465;-73
2023/03/08 09:12:30;;;;;;;22.23;10.00;;;1.90;99.90;;;;;;5016041;28;20125;-73
2023/03/08 09:14:57;;;;;;;20.90;9.57;;;1.90;99.90;;;;;;4999707;28;20030;-73
2023/03/08 09:17:23;;;;;;;21.60;8.80;;;1.90;99.90;;;;;;5019854;28;20457;-73
2023/03/08 09:19:49;;;;;;;18.45;8.60;;;1.90;99.90;;;;;;5017881;28;20112;-75
2023/03/08 09:22:14;;;;;;;25.08;9.27;;;1.90;99.90;;;;;;5016821;28;20139;-75
2023/03/08 09:24:40;;;;;;;26.42;10.05;;;1.90;99.90;;;;;;5020240;28;20132;-75
2023/03/08 09:27:06;;;;;;;22.65;10.15;;;1.90;99.90;;;;;;5018645;28;20391;-73
2023/03/08 09:29:32;;;;;;;22.67;9.88;;;1.90;99.90;;;;;;5017308;28;20397;-74
2023/03/08 09:31:58;;;;;;;19.33;9.55;;;2.00;99.90;;;;;;4999223;28;20096;-71
2023/03/08 09:34:24;;;;;;;25.67;11.35;;;2.00;99.90;;;;;;5018902;28;20026;-73
2023/03/08 09:36:50;;;;;;;26.63;10.85;;;2.00;99.90;;;;;;5001797;28;20033;-72
2023/03/08 09:39:16;;;;;;;20.77;9.82;;;2.00;99.90;;;;;;5019344;28;20500;-72
2023/03/08 09:41:53;;;;;;;22.38;10.20;;;2.00;99.90;;;;;;5018935;28;20045;-72
2023/03/08 09:44:33;;;;;;;19.70;9.85;;;2.10;99.90;;;;;;5017708;28;20386;-73
2023/03/08 09:47:27;;;;;;;19.10;8.57;;;2.20;99.90;;;;;;5016992;28;20029;-72
2023/03/08 09:50:08;;;;;;;22.13;10.13;;;2.30;99.90;;;;;;5018061;28;20037;-73
2023/03/08 09:52:34;;;;;;;17.25;7.93;;;2.20;99.90;;;;;;5001919;28;20029;-73
2023/03/08 09:55:02;;;;;;;17.88;8.80;;;2.10;99.90;;;;;;5015101;28;20022;-73
2023/03/08 09:57:44;;;;;;;18.02;9.02;;;2.10;99.90;;;;;;5016190;28;20025;-74
2023/03/08 10:00:19;;;;;;;24.08;9.70;;;2.20;99.90;;;;;;5015104;28;20037;-72
2023/03/08 10:03:01;;;;;;;18.25;9.98;;;2.20;99.90;;;;;;5015706;28;20412;-71
2023/03/08 10:06:01;;;;;;;19.75;10.13;;;2.30;99.90;;;;;;5020213;28;20485;-72
2023/03/08 10:08:53;;;;;;;19.17;8.88;;;2.30;99.90;;;;;;5016219;28;20116;-74
2023/03/08 10:12:10;;;;;;;20.55;8.90;;;2.30;99.90;;;;;;5016431;28;20045;-73
2023/03/08 10:14:43;;;;;;;17.50;9.25;;;2.40;99.90;;;;;;4990493;28;20045;-72
2023/03/08 10:17:17;;;;;;;17.05;9.07;;;2.40;99.90;;;;;;5016908;28;20030;-73
2023/03/08 10:20:05;;;;;;;20.40;8.93;;;2.40;99.90;;;;;;5020239;28;20034;-74
2023/03/08 10:22:41;;;;;;;17.98;7.68;;;2.50;99.90;;;;;;5016262;28;20092;-74
2023/03/08 10:25:23;;;;;;;17.40;8.60;;;2.60;99.90;;;;;;5016873;28;20445;-71
2023/03/08 10:27:53;;;;;;;20.02;9.10;;;2.60;99.90;;;;;;5016824;28;20025;-71
2023/03/08 10:30:22;;;;;;;18.60;8.88;;;2.60;99.90;;;;;;5023045;28;20029;-73
2023/03/08 10:32:51;;;;;;;19.70;8.68;;;2.70;99.90;;;;;;5020950;28;20482;-72
2023/03/08 10:35:28;;;;;;;16.23;8.38;;;2.60;99.90;;;;;;5016244;28;20432;-74
2023/03/08 10:37:54;;;;;;;20.27;7.60;;;2.70;99.90;;;;;;5016415;28;20478;-72
2023/03/08 10:40:21;;;;;;;16.52;7.55;;;2.70;99.90;;;;;;5016946;28;20107;-73
2023/03/08 10:43:06;;;;;;;14.25;7.47;;;2.80;99.90;;;;;;5017720;28;20029;-73
2023/03/08 10:45:32;;;;;;;16.50;8.50;;;2.90;99.90;;;;;;5016528;28;20079;-72
2023/03/08 10:48:04;;;;;;;18.65;8.88;;;2.90;99.90;;;;;;5017010;28;20386;-72
2023/03/08 10:50:36;;;;;;;14.10;7.55;;;2.90;99.90;;;;;;5018738;28;20611;-72
2023/03/08 10:53:15;;;;;;;15.05;8.10;;;2.90;99.90;;;;;;5019526;28;20026;-74
2023/03/08 10:55:46;;;;;;;13.32;7.00;;;2.90;99.90;;;;;;5021179;28;20025;-73
2023/03/08 10:58:38;;;;;;;;;;;3.00;99.90;;;;;;5022776;28;20080;-76
2023/03/08 11:01:21;;;;;;;17.58;7.40;;;3.00;99.90;;;;;;5009636;28;19988;-72
2023/03/08 11:04:12;;;;;;;18.23;9.27;;;3.00;99.90;;;;;;5021258;28;20084;-73
2023/03/08 11:06:38;;;;;;;15.65;8.15;;;3.00;99.90;;;;;;5022776;28;20516;-75
2023/03/08 11:09:28;;;;;;;15.77;7.20;;;3.10;99.90;;;;;;5021217;28;20041;-75
2023/03/08 11:11:58;;;;;;;13.10;7.32;;;3.10;99.90;;;;;;5024068;28;20021;-73
2023/03/08 11:14:25;;;;;;;13.80;6.57;;;3.10;99.90;;;;;;5020449;28;20025;-74
2023/03/08 11:17:05;;;;;;;9.80;6.20;;;3.20;99.90;;;;;;5019851;28;20029;-74
2023/03/08 11:20:14;;;;;;;12.55;6.72;;;3.30;99.90;;;;;;5021641;28;20506;-75
2023/03/08 11:22:58;;;;;;;12.68;6.80;;;3.60;99.90;;;;;;5024043;28;20556;-74
2023/03/08 11:25:54;;;;;;;12.60;6.18;;;4.20;99.90;;;;;;5021165;28;20100;-74
2023/03/08 11:28:34;;;;;;;11.65;5.55;;;4.90;99.90;;;;;;4945249;28;20094;-71
2023/03/08 11:31:17;;;;;;;8.07;3.80;;;5.40;99.90;;;;;;5018776;28;20025;-72
2023/03/08 11:33:43;;;;;;;9.55;5.47;;;5.90;99.90;;;;;;5020346;28;20187;-73
2023/03/08 11:36:27;;;;;;;9.40;5.60;;;5.50;99.90;;;;;;5021208;28;20112;-72
2023/03/08 11:39:22;;;;;;;11.13;5.50;;;5.20;99.90;;;;;;5004296;28;20493;-73
2023/03/08 11:41:50;;;;;;;11.30;5.63;;;5.20;99.90;;;;;;5013644;28;20494;-73
2023/03/08 11:44:36;;;;;;;8.88;5.55;;;5.00;99.90;;;;;;5022463;28;20051;-74
2023/03/08 11:47:42;;;;;;;11.50;6.57;;;4.90;99.90;;;;;;5022181;28;20032;-74
2023/03/08 11:50:20;;;;;;;27.73;12.75;;;4.80;99.90;;;;;;5005547;28;20049;-72
2023/03/08 11:52:56;;;;;;;849.78;438.15;;;4.90;99.90;;;;;;5021657;28;20033;-73
2023/03/08 11:55:43;;;;;;;185.40;105.03;;;4.80;99.90;;;;;;5004943;28;20026;-72
2023/03/08 11:58:33;;;;;;;23.55;17.58;;;4.70;99.90;;;;;;5031975;28;20061;-74
2023/03/08 12:01:01;;;;;;;12.43;6.45;;;4.70;99.90;;;;;;5034214;28;20032;-74
2023/03/08 12:03:33;;;;;;;11.50;7.22;;;4.80;99.90;;;;;;5018559;28;20018;-75
2023/03/08 12:06:09;;;;;;;10.23;7.05;;;4.70;99.90;;;;;;5019922;28;20049;-75
2023/03/08 12:08:48;;;;;;;10.40;6.82;;;4.90;99.90;;;;;;5022491;28;20489;-75
2023/03/08 12:11:29;;;;;;;13.13;7.40;;;5.00;99.90;;;;;;5020882;28;20087;-74
2023/03/08 12:14:12;;;;;;;7.82;5.70;;;5.00;99.90;;;;;;5019744;28;20018;-74
2023/03/08 12:17:02;;;;;;;12.18;8.27;;;6.10;99.90;;;;;;5020663;28;20026;-75
2023/03/08 12:19:50;;;;;;;11.05;7.78;;;5.30;99.90;;;;;;5020890;28;20034;-72
2023/03/08 12:22:38;;;;;;;10.35;7.85;;;4.80;99.90;;;;;;5019977;28;20072;-72
2023/03/08 12:25:33;;;;;;;13.15;8.25;;;4.50;99.90;;;;;;5022938;28;20564;-72
2023/03/08 12:28:23;;;;;;;11.90;7.65;;;4.40;99.90;;;;;;5019237;28;20397;-72
2023/03/08 12:31:20;;;;;;;9.45;7.03;;;4.10;99.90;;;;;;5021845;28;20121;-72
2023/03/08 12:33:46;;;;;;;10.75;7.53;;;4.20;99.90;;;;;;5019456;28;20029;-72
2023/03/08 12:36:12;;;;;;;12.82;7.30;;;4.20;99.90;;;;;;5000125;28;20017;-72
2023/03/08 12:38:41;;;;;;;10.90;6.97;;;4.20;99.90;;;;;;5019897;28;20083;-72
2023/03/08 12:41:25;;;;;;;9.23;7.05;;;4.20;99.90;;;;;;5018894;28;20033;-71
2023/03/08 12:44:24;;;;;;;9.30;6.97;;;4.20;99.90;;;;;;5017676;28;20175;-72
2023/03/08 12:47:10;;;;;;;13.18;7.40;;;4.10;99.90;;;;;;5013038;28;20045;-73
2023/03/08 12:49:42;;;;;;;11.23;7.65;;;4.20;99.90;;;;;;5017208;28;20033;-73
2023/03/08 12:52:17;;;;;;;16.25;8.50;;;4.30;99.90;;;;;;5020070;28;20526;-73
2023/03/08 12:54:58;;;;;;;12.98;7.47;;;4.30;99.90;;;;;;5019114;28;20030;-72
2023/03/08 12:57:29;;;;;;;12.00;7.55;;;4.60;99.90;;;;;;5020206;28;20076;-73
2023/03/08 13:00:25;;;;;;;11.27;7.50;;;4.60;99.90;;;;;;5016940;28;20034;-73
2023/03/08 13:03:18;;;;;;;11.57;7.15;;;4.80;99.90;;;;;;5025262;28;20057;-75
2023/03/08 13:05:46;;;;;;;14.48;6.93;;;4.70;99.90;;;;;;5018443;28;20085;-74